Time;durP1;ratioP1;P1;durP2;ratioP2;P2;SDS_P1;SDS_P2;PMS_P1;PMS_P2;Temp;Humidity;BMP_temperature;BMP_pressure;BME280_temperature;BME280_humidity;BME280_pressure;Samples;Min_cycle;Max_cycle;Signal;HPM_P1;HPM_P2
2023/07/23 00:01:33;;;;;;;4;2.7;;;;;;;15.55;91.1416;938.5455;;;;
2023/07/23 00:04:01;;;;;;;5.2;3.2;;;;;;;15.36;91.95703;938.4954;;;;
2023/07/23 00:06:26;;;;;;;3.8;3;;;;;;;15.37;92.32813;938.6021;;;;
2023/07/23 00:08:53;;;;;;;3.2;2.8;;;;;;;15.4;91.96484;938.6484;;;;
2023/07/23 00:11:18;;;;;;;5.4;3.4;;;;;;;15.3;92.27637;938.6451;;;;
2023/07/23 00:13:47;;;;;;;5.3;3;;;;;;;15.39;91.59277;938.6131;;;;
2023/07/23 00:16:12;;;;;;;4.6;3;;;;;;;15.2;92.50977;938.64;;;;
2023/07/23 00:18:44;;;;;;;5.1;3.1;;;;;;;15.29;91.97656;938.565;;;;
2023/07/23 00:21:14;;;;;;;4.5;3;;;;;;;15.47;91.24023;938.5469;;;;
2023/07/23 00:23:39;;;;;;;5.4;3.2;;;;;;;15.39;91.38574;938.459;;;;
2023/07/23 00:26:10;;;;;;;3.6;2.9;;;;;;;15.34;91.71094;938.4891;;;;
2023/07/23 00:28:35;;;;;;;3.5;3.2;;;;;;;15.27;92.05371;938.5002;;;;
2023/07/23 00:31:05;;;;;;;6.8;3.4;;;;;;;15.49;91.09375;938.5549;;;;
2023/07/23 00:33:30;;;;;;;4.5;3.2;;;;;;;15.5;90.86523;938.525;;;;
2023/07/23 00:35:59;;;;;;;4.9;3;;;;;;;15.29;91.88379;938.4808;;;;
2023/07/23 00:38:24;;;;;;;3.9;2.8;;;;;;;15.48;91.4834;938.4698;;;;
2023/07/23 00:40:52;;;;;;;6.7;3.5;;;;;;;15.36;92.04883;938.4553;;;;
2023/07/23 00:43:16;;;;;;;4.5;3.3;;;;;;;15.43;91.70508;938.467;;;;
2023/07/23 00:45:43;;;;;;;4.7;3;;;;;;;15.51;90.99414;938.4767;;;;
2023/07/23 00:48:08;;;;;;;4.5;3.3;;;;;;;15.63;89.81738;938.4763;;;;
2023/07/23 00:50:35;;;;;;;5.1;3;;;;;;;15.54;90.29492;938.4203;;;;
2023/07/23 00:53:00;;;;;;;4.2;2.8;;;;;;;15.43;91.12891;938.3851;;;;
2023/07/23 00:55:28;;;;;;;6.6;3.4;;;;;;;15.35;91.23926;938.3799;;;;
2023/07/23 00:57:53;;;;;;;4.8;3.1;;;;;;;15.36;91.27539;938.3125;;;;
2023/07/23 01:00:20;;;;;;;4.2;3.1;;;;;;;15.27;91.49902;938.3117;;;;
2023/07/23 01:02:45;;;;;;;5.3;3;;;;;;;15.46;90.55566;938.3248;;;;
2023/07/23 01:05:11;;;;;;;4.2;3.1;;;;;;;15.32;91.04688;938.3201;;;;
2023/07/23 01:11:24;;;;;;;3.4;2.6;;;;;;;15.15;91.94629;938.3333;;;;
2023/07/23 01:13:49;;;;;;;4.3;3;;;;;;;15.25;91.38965;938.3103;;;;
2023/07/23 01:16:18;;;;;;;4.2;2.9;;;;;;;15.06;92.3418;938.2979;;;;
2023/07/23 01:18:43;;;;;;;3.9;3;;;;;;;15.14;91.91113;938.2378;;;;
2023/07/23 01:21:11;;;;;;;5.2;3;;;;;;;15.11;92.27246;938.2285;;;;
2023/07/23 01:23:36;;;;;;;3.1;2.8;;;;;;;15.1;92.52441;938.2189;;;;
2023/07/23 01:26:03;;;;;;;4.5;2.7;;;;;;;15.32;91.32422;938.1308;;;;
2023/07/23 01:28:29;;;;;;;3.5;2.8;;;;;;;15.35;91.37598;938.2275;;;;
2023/07/23 01:30:56;;;;;;;4.6;3;;;;;;;15.38;90.88477;938.2112;;;;
2023/07/23 01:33:21;;;;;;;5.5;2.6;;;;;;;15.4;90.63672;938.1942;;;;
2023/07/23 01:35:48;;;;;;;3.8;2.8;;;;;;;15.49;89.9043;938.1785;;;;
2023/07/23 01:38:13;;;;;;;4.5;3.1;;;;;;;15.38;90.1709;938.1583;;;;
2023/07/23 01:40:41;;;;;;;3.7;2.9;;;;;;;15.4;90.19824;938.1566;;;;
2023/07/23 01:43:06;;;;;;;3.2;2.8;;;;;;;15.4;90.00195;938.1316;;;;
2023/07/23 01:45:36;;;;;;;3.8;2.8;;;;;;;15.4;90.23242;938.1412;;;;
2023/07/23 01:48:03;;;;;;;4.9;2.8;;;;;;;15.35;90.66211;938.1039;;;;
2023/07/23 01:50:28;;;;;;;4.6;2.9;;;;;;;15.27;90.83008;938.1255;;;;
2023/07/23 01:52:58;;;;;;;5.3;3.1;;;;;;;15.21;90.72461;938.1017;;;;
2023/07/23 01:55:28;;;;;;;5.2;2.9;;;;;;;15.14;91.32129;938.0647;;;;
2023/07/23 01:57:53;;;;;;;3.6;2.8;;;;;;;15.21;90.78223;938.0552;;;;
2023/07/23 02:00:19;;;;;;;5;3.3;;;;;;;15.16;91.10742;938.0973;;;;
2023/07/23 02:02:47;;;;;;;4.6;3.3;;;;;;;15.18;90.87793;938.0779;;;;
2023/07/23 02:05:18;;;;;;;4.1;3.2;;;;;;;15.19;90.60547;938.085;;;;
2023/07/23 02:07:46;;;;;;;4.1;3;;;;;;;15.09;91;938.053;;;;
2023/07/23 02:10:11;;;;;;;4;3.1;;;;;;;15.08;90.77734;938.0275;;;;
2023/07/23 02:12:40;;;;;;;4.6;2.9;;;;;;;15.05;91.12891;938.0117;;;;
2023/07/23 02:15:05;;;;;;;3.4;2.9;;;;;;;15.06;91.34082;938.0853;;;;
2023/07/23 02:17:32;;;;;;;4;3;;;;;;;15.02;91.12305;938.0183;;;;
2023/07/23 02:19:57;;;;;;;4.5;3.2;;;;;;;14.99;91.40625;938.1177;;;;
2023/07/23 02:22:28;;;;;;;3.8;2.8;;;;;;;15;91.75391;938.1369;;;;
2023/07/23 02:24:55;;;;;;;4.3;3.1;;;;;;;15.01;91.21387;938.0999;;;;
2023/07/23 02:27:21;;;;;;;7.1;2.8;;;;;;;14.99;91.39453;938.0695;;;;
2023/07/23 02:29:45;;;;;;;4.2;2.8;;;;;;;14.99;91.25391;938.1794;;;;
2023/07/23 02:32:13;;;;;;;3.7;2.7;;;;;;;14.85;91.96387;938.1685;;;;
2023/07/23 02:34:38;;;;;;;4.6;2.9;;;;;;;14.9;91.45605;938.1216;;;;
2023/07/23 02:37:03;;;;;;;3.8;3;;;;;;;14.95;91.15234;938.1509;;;;
2023/07/23 02:39:37;;;;;;;4.9;2.8;;;;;;;14.93;91.4043;938.1687;;;;
2023/07/23 02:42:05;;;;;;;6.1;3.1;;;;;;;14.86;91.62012;938.0778;;;;
2023/07/23 02:44:30;;;;;;;4.9;3.5;;;;;;;14.84;91.96191;938.0603;;;;
2023/07/23 02:46:59;;;;;;;4.1;2.8;;;;;;;14.77;92.4082;938.1543;;;;
2023/07/23 02:49:24;;;;;;;4.1;2.8;;;;;;;14.76;92.41797;938.1495;;;;
2023/07/23 02:51:52;;;;;;;4.8;3.1;;;;;;;14.75;92.93457;938.1135;;;;
2023/07/23 02:54:25;;;;;;;5.7;3.6;;;;;;;14.82;92.06055;938.0789;;;;
2023/07/23 02:56:50;;;;;;;5.7;3.4;;;;;;;14.83;91.72949;938.1085;;;;
2023/07/23 02:59:20;;;;;;;5.7;3.3;;;;;;;14.77;91.83203;938.115;;;;
2023/07/23 03:01:48;;;;;;;4.9;3.3;;;;;;;14.35;94.72754;938.1463;;;;
2023/07/23 03:04:13;;;;;;;3.7;3;;;;;;;14.49;93.8584;938.1181;;;;
2023/07/23 03:06:42;;;;;;;4.3;3.3;;;;;;;14.57;93.96777;938.1224;;;;
2023/07/23 03:09:08;;;;;;;6.8;3.2;;;;;;;14.65;93.26855;938.0901;;;;
2023/07/23 03:11:37;;;;;;;5.4;3.5;;;;;;;14.75;92.38086;938.1264;;;;
2023/07/23 03:14:02;;;;;;;4.8;3.2;;;;;;;14.74;92.66602;938.0936;;;;
2023/07/23 03:16:27;;;;;;;4.9;2.8;;;;;;;14.73;93.16113;938.1641;;;;
2023/07/23 03:18:54;;;;;;;6.6;3.5;;;;;;;14.76;93.04004;938.2112;;;;
2023/07/23 03:21:45;;;;;;;3.3;2.9;;;;;;;14.79;92.74609;938.1284;;;;
2023/07/23 03:24:11;;;;;;;7.5;3.3;;;;;;;14.85;92.40234;938.1853;;;;
2023/07/23 03:26:36;;;;;;;4.1;3.2;;;;;;;14.73;92.44629;938.2075;;;;
2023/07/23 03:29:05;;;;;;;3.4;2.9;;;;;;;14.83;91.94629;938.1526;;;;
2023/07/23 03:31:30;;;;;;;5.6;3.2;;;;;;;14.75;92.26563;938.1808;;;;
2023/07/23 03:33:56;;;;;;;4;2.9;;;;;;;14.51;93.94238;938.0715;;;;
2023/07/23 03:36:21;;;;;;;4.4;3;;;;;;;14.48;93.9834;938.1911;;;;
2023/07/23 03:38:50;;;;;;;3.3;2.9;;;;;;;14.46;94.63574;938.1535;;;;
2023/07/23 03:41:15;;;;;;;4.3;3;;;;;;;14.66;93.74512;938.151;;;;
2023/07/23 03:43:43;;;;;;;3.8;3.1;;;;;;;14.7;93.12109;938.1588;;;;
2023/07/23 03:46:09;;;;;;;5;3;;;;;;;14.82;92.38477;938.1895;;;;
2023/07/23 03:48:39;;;;;;;3.9;3;;;;;;;14.83;92.52344;938.1398;;;;
2023/07/23 03:51:04;;;;;;;5;3.1;;;;;;;14.84;92.21582;938.0667;;;;
2023/07/23 03:53:32;;;;;;;4.7;2.9;;;;;;;14.98;91.66797;938.0264;;;;
2023/07/23 03:56:05;;;;;;;6.1;3.1;;;;;;;15;91.69434;938.0302;;;;
2023/07/23 04:02:36;;;;;;;5.7;3.1;;;;;;;14.86;92.34668;938.077;;;;
2023/07/23 04:05:05;;;;;;;5.3;3.1;;;;;;;15.08;92.15137;938.0547;;;;
2023/07/23 04:07:30;;;;;;;4;2.9;;;;;;;15;92.53809;938.0887;;;;
2023/07/23 04:10:00;;;;;;;4;2.9;;;;;;;14.75;93.96289;938.1223;;;;
2023/07/23 04:12:25;;;;;;;3.8;3;;;;;;;14.79;94.08398;938.147;;;;
2023/07/23 04:14:53;;;;;;;4.1;2.8;;;;;;;14.82;94.80469;938.0901;;;;
2023/07/23 04:17:18;;;;;;;4.1;3;;;;;;;14.98;93.94043;938.0464;;;;
2023/07/23 04:19:48;;;;;;;4.6;2.8;;;;;;;15.13;93.10938;937.9941;;;;
2023/07/23 04:22:13;;;;;;;5.5;3.1;;;;;;;14.79;94.5332;938.0908;;;;
2023/07/23 04:24:40;;;;;;;5;3.1;;;;;;;14.61;95.91211;938.0789;;;;
2023/07/23 04:27:08;;;;;;;4.5;3.2;;;;;;;14.57;96.40918;938.0768;;;;
2023/07/23 04:29:33;;;;;;;6;3.2;;;;;;;14.61;96.08496;938.03;;;;
2023/07/23 04:32:01;;;;;;;4;3.2;;;;;;;14.64;96.78418;937.9997;;;;
2023/07/23 04:34:26;;;;;;;3.2;2.6;;;;;;;14.86;95.32129;937.984;;;;
2023/07/23 04:36:59;;;;;;;4.4;3;;;;;;;15;95.00488;937.9524;;;;
2023/07/23 04:39:30;;;;;;;3.8;2.9;;;;;;;15.18;94.19043;937.9945;;;;
2023/07/23 04:42:03;;;;;;;4.5;3;;;;;;;15.4;93.25781;938.0025;;;;
2023/07/23 04:44:28;;;;;;;4.8;2.7;;;;;;;15.45;92.18164;938.015;;;;
2023/07/23 04:46:53;;;;;;;3.8;3.1;;;;;;;15.54;91.77344;938.0222;;;;
2023/07/23 04:49:18;;;;;;;3.7;3.1;;;;;;;15.62;91.17871;937.9939;;;;
2023/07/23 04:51:48;;;;;;;4.9;2.9;;;;;;;15.47;91.33105;938.0149;;;;
2023/07/23 04:54:19;;;;;;;5.4;3;;;;;;;15.17;93.15137;938.0114;;;;
2023/07/23 04:56:48;;;;;;;3.9;3.1;;;;;;;15.05;93.49609;937.9347;;;;
2023/07/23 04:59:19;;;;;;;5.5;3.2;;;;;;;15.08;94.30762;937.8911;;;;
2023/07/23 05:01:44;;;;;;;4.9;2.8;;;;;;;15.06;94.1416;937.9611;;;;
2023/07/23 05:04:12;;;;;;;5.3;3.3;;;;;;;15.35;93.27148;937.9804;;;;
2023/07/23 05:06:44;;;;;;;4.4;2.9;;;;;;;15.37;92.4668;937.9819;;;;
2023/07/23 05:09:12;;;;;;;3.8;3;;;;;;;15.47;91.69141;937.937;;;;
2023/07/23 05:11:37;;;;;;;3.9;2.9;;;;;;;15.63;91.19141;937.9938;;;;
2023/07/23 05:14:05;;;;;;;5;3;;;;;;;15.62;90.83203;937.9345;;;;
2023/07/23 05:16:31;;;;;;;4.1;3.1;;;;;;;15.72;90.64648;937.9984;;;;
2023/07/23 05:19:00;;;;;;;3.9;2.8;;;;;;;15.93;91.31348;937.9539;;;;
2023/07/23 05:21:30;;;;;;;3.9;2.9;;;;;;;16.56;90.2168;937.945;;;;
2023/07/23 05:27:16;;;;;;;4.2;2.7;;;;;;;18.87;78.00684;938.0154;;;;
2023/07/23 05:29:46;;;;;;;5.9;3.1;;;;;;;19.74;73.82422;938.0441;;;;
2023/07/23 05:32:11;;;;;;;3.3;2.4;;;;;;;20.33;70.10547;937.9842;;;;
2023/07/23 05:34:43;;;;;;;5.3;2.5;;;;;;;20.82;68.86035;938.0145;;;;
2023/07/23 05:37:18;;;;;;;3.2;2.4;;;;;;;21.16;67.58008;938.0555;;;;
2023/07/23 05:39:52;;;;;;;4.4;2.4;;;;;;;21.43;62.78711;938.0477;;;;
2023/07/23 05:42:16;;;;;;;2.7;2.2;;;;;;;21.72;63.4375;938.0455;;;;
2023/07/23 05:44:44;;;;;;;3.4;2.4;;;;;;;22.45;61.79395;938.0455;;;;
2023/07/23 05:47:10;;;;;;;4.8;2.4;;;;;;;22.98;59.98828;938.1011;;;;
2023/07/23 05:49:35;;;;;;;4;2.7;;;;;;;22.23;63.93164;938.0162;;;;
2023/07/23 05:52:00;;;;;;;2.7;2.1;;;;;;;22.92;59.42773;938.0245;;;;
2023/07/23 05:54:25;;;;;;;4.2;2.4;;;;;;;23.67;56.03418;938.074;;;;
2023/07/23 05:56:55;;;;;;;3.4;2.4;;;;;;;23.55;57.38281;938.0541;;;;
2023/07/23 05:59:25;;;;;;;3.5;2.5;;;;;;;23.9;55.39258;938.0566;;;;
2023/07/23 06:01:58;;;;;;;3.6;2.6;;;;;;;23.96;54.94043;938.0231;;;;
2023/07/23 06:04:29;;;;;;;3.3;2.5;;;;;;;24.49;54.60352;937.9867;;;;
2023/07/23 06:06:59;;;;;;;3.2;2.2;;;;;;;24.61;53.02832;938.0234;;;;
2023/07/23 06:09:29;;;;;;;5.9;2.4;;;;;;;24.28;53.80078;937.9977;;;;
2023/07/23 06:11:59;;;;;;;2.6;2.1;;;;;;;23.65;55.45508;937.9807;;;;
2023/07/23 06:14:25;;;;;;;4.4;2.1;;;;;;;24.82;54.9873;937.948;;;;
2023/07/23 06:16:51;;;;;;;2.3;2.1;;;;;;;24.44;53.75;937.9309;;;;
2023/07/23 06:19:19;;;;;;;2.9;2.2;;;;;;;25.31;52.20215;937.9285;;;;
2023/07/23 06:21:49;;;;;;;2.6;2.1;;;;;;;25.93;51.39941;937.9573;;;;
2023/07/23 06:24:14;;;;;;;4.4;2.5;;;;;;;26.41;50.38867;937.9921;;;;
2023/07/23 06:26:45;;;;;;;3.1;2.1;;;;;;;26.74;48.05664;937.9;;;;
2023/07/23 06:29:14;;;;;;;2.7;2.2;;;;;;;26.62;48.2207;937.9677;;;;
2023/07/23 06:31:39;;;;;;;3.8;2.5;;;;;;;27.32;47.82227;937.9059;;;;
2023/07/23 06:34:09;;;;;;;2.7;2.1;;;;;;;26.17;49.73535;937.9025;;;;
2023/07/23 06:36:32;;;;;;;3;2.5;;;;;;;26.53;48.43652;937.8481;;;;
2023/07/23 06:39:00;;;;;;;2.7;2.2;;;;;;;27.42;46.8125;937.8798;;;;
2023/07/23 06:41:26;;;;;;;2.4;2.2;;;;;;;27.42;47.44141;937.8986;;;;
2023/07/23 06:43:52;;;;;;;2.4;2.2;;;;;;;28.1;45.18457;937.8317;;;;
2023/07/23 06:46:20;;;;;;;3;2.4;;;;;;;28.42;44.45508;937.8147;;;;
2023/07/23 06:48:49;;;;;;;3.1;2.4;;;;;;;27.98;43.8418;937.8602;;;;
2023/07/23 06:51:14;;;;;;;2.5;2.1;;;;;;;28.33;46.09961;937.7053;;;;
2023/07/23 06:53:42;;;;;;;2.7;2.2;;;;;;;27.84;44.81445;937.7906;;;;
2023/07/23 06:56:07;;;;;;;2.7;2.2;;;;;;;28.01;44.61719;937.7808;;;;
2023/07/23 06:58:59;;;;;;;3.5;2.4;;;;;;;27;46.05859;937.7933;;;;
2023/07/23 07:01:30;;;;;;;2.7;2.1;;;;;;;28.05;46.21289;937.7558;;;;
2023/07/23 07:04:01;;;;;;;3;2.1;;;;;;;29.31;43.36426;937.6653;;;;
2023/07/23 07:06:31;;;;;;;2.6;2.4;;;;;;;29;41.2627;937.68;;;;
2023/07/23 07:08:56;;;;;;;2.9;2.4;;;;;;;28.96;45.0332;937.614;;;;
2023/07/23 07:11:25;;;;;;;3.1;2.2;;;;;;;28.02;45.36719;937.6588;;;;
2023/07/23 07:13:51;;;;;;;2.9;2.1;;;;;;;28.7;42.75781;937.63;;;;
2023/07/23 07:16:17;;;;;;;2.9;2.2;;;;;;;29.41;44.25488;937.5875;;;;
2023/07/23 07:18:41;;;;;;;2.3;2.1;;;;;;;29.65;41.63281;937.6424;;;;
2023/07/23 07:21:08;;;;;;;2.9;2.3;;;;;;;29.98;40.33887;937.6207;;;;
2023/07/23 07:23:33;;;;;;;3.7;2.5;;;;;;;29.76;41.85742;937.5956;;;;
2023/07/23 07:26:02;;;;;;;3.5;2.5;;;;;;;30.15;39.99512;937.6471;;;;
2023/07/23 07:28:26;;;;;;;3.3;2.3;;;;;;;29.94;40.23926;937.5584;;;;
2023/07/23 07:30:54;;;;;;;3.1;2.4;;;;;;;29.5;41.40332;937.4922;;;;
2023/07/23 07:33:19;;;;;;;3;2.4;;;;;;;29.16;45.29102;937.4924;;;;
2023/07/23 07:35:49;;;;;;;2.8;2;;;;;;;29.09;41.48535;937.4832;;;;
2023/07/23 07:38:18;;;;;;;3.1;2.5;;;;;;;30.17;40.12891;937.4732;;;;
2023/07/23 07:40:43;;;;;;;3.2;2.7;;;;;;;29.95;40.76563;937.4706;;;;
2023/07/23 07:43:12;;;;;;;3.2;2.4;;;;;;;30.37;38.84473;937.4224;;;;
2023/07/23 07:45:45;;;;;;;2.9;2.2;;;;;;;30.5;38.67676;937.3994;;;;
2023/07/23 07:48:10;;;;;;;3.4;2.7;;;;;;;31.04;40.68457;937.4075;;;;
2023/07/23 07:50:43;;;;;;;3;2.5;;;;;;;32.53;38.08203;937.3176;;;;
2023/07/23 07:53:14;;;;;;;3.2;2.2;;;;;;;33;34.86719;937.2532;;;;
2023/07/23 07:55:46;;;;;;;5.3;2.5;;;;;;;32.71;36.42871;937.2673;;;;
2023/07/23 07:58:24;;;;;;;2.6;2.4;;;;;;;33.14;36.54785;937.2606;;;;
2023/07/23 08:00:44;;;;;;;3;2.4;;;;;;;33.44;32.77246;937.251;;;;
2023/07/23 08:03:14;;;;;;;3;2.4;;;;;;;32.88;35.08496;937.1683;;;;
2023/07/23 08:05:44;;;;;;;3.6;2.4;;;;;;;32.14;35.92773;937.1404;;;;
2023/07/23 08:08:09;;;;;;;3.5;2.3;;;;;;;32.95;34.43066;937.0873;;;;
2023/07/23 08:10:34;;;;;;;3.1;2.2;;;;;;;32.14;34.75293;937.1021;;;;
2023/07/23 08:13:04;;;;;;;2.4;2.2;;;;;;;31.53;36.01074;937.1015;;;;
2023/07/23 08:17:53;;;;;;;3.8;2.1;;;;;;;29.94;38.49805;937.0945;;;;
2023/07/23 08:20:24;;;;;;;3;2.4;;;;;;;30.57;37.41699;937.0676;;;;
2023/07/23 08:22:52;;;;;;;2.9;2.3;;;;;;;32.08;35.43164;937.0701;;;;
2023/07/23 08:25:17;;;;;;;3.4;2.3;;;;;;;32.12;34.48828;937.012;;;;
2023/07/23 08:27:45;;;;;;;3.3;2.3;;;;;;;32.02;34.73145;936.9925;;;;
2023/07/23 08:30:11;;;;;;;2.6;2.3;;;;;;;32.71;33.95605;936.99;;;;
2023/07/23 08:32:39;;;;;;;2.8;2.4;;;;;;;33.47;33.23145;937.0008;;;;
2023/07/23 08:35:04;;;;;;;2.6;2.3;;;;;;;32.52;31.54199;936.9755;;;;
2023/07/23 08:37:35;;;;;;;3.1;2.4;;;;;;;33.05;35.18359;936.9033;;;;
2023/07/23 08:40:00;;;;;;;3.3;2.4;;;;;;;33.27;31.05371;936.8709;;;;
2023/07/23 08:50:45;;;;;;;3.6;2.3;;;;;;;32.25;31.72754;936.8617;;;;
2023/07/23 08:53:10;;;;;;;2.5;2.1;;;;;;;33.75;32.07324;936.9321;;;;
2023/07/23 08:55:35;;;;;;;2.6;2.3;;;;;;;33.75;34.33496;936.9403;;;;
2023/07/23 08:58:00;;;;;;;2.4;2.2;;;;;;;34.12;29.54688;936.8934;;;;
2023/07/23 09:00:33;;;;;;;2.7;2.2;;;;;;;33.98;30.83691;936.7978;;;;
2023/07/23 09:03:03;;;;;;;2.3;2.1;;;;;;;34.29;31.16016;936.7957;;;;
2023/07/23 09:05:23;;;;;;;2.2;2;;;;;;;33.46;32.2334;936.756;;;;
2023/07/23 09:07:53;;;;;;;3.2;2.4;;;;;;;34.14;31.25781;936.7687;;;;
2023/07/23 09:10:21;;;;;;;5.6;2.5;;;;;;;34.32;33.58301;936.7236;;;;
2023/07/23 09:12:48;;;;;;;3.4;2.4;;;;;;;33.82;32.12598;936.6442;;;;
2023/07/23 09:15:14;;;;;;;4.5;2.5;;;;;;;34.18;30.35742;936.5952;;;;
2023/07/23 09:17:43;;;;;;;2.7;2.4;;;;;;;34.31;31.95605;936.5283;;;;
2023/07/23 09:20:08;;;;;;;3.3;2.2;;;;;;;33.36;31.18066;936.4317;;;;
2023/07/23 09:22:36;;;;;;;3.6;2.5;;;;;;;34.01;31.64648;936.5292;;;;
2023/07/23 09:25:01;;;;;;;2.7;2.5;;;;;;;33.88;32.39551;936.4843;;;;
2023/07/23 09:27:27;;;;;;;3.7;2.7;;;;;;;33.04;33.22363;936.5112;;;;
2023/07/23 09:29:52;;;;;;;3;2.6;;;;;;;32.52;33.10254;936.4903;;;;
2023/07/23 09:32:18;;;;;;;3;2.4;;;;;;;33.22;30.31738;936.4805;;;;
2023/07/23 09:34:47;;;;;;;3.4;2.7;;;;;;;33.69;32.51367;936.4636;;;;
2023/07/23 09:37:12;;;;;;;2.7;2.4;;;;;;;33.77;32.63965;936.4638;;;;
2023/07/23 09:39:40;;;;;;;3.4;2.6;;;;;;;33.08;32.49414;936.4152;;;;
2023/07/23 09:42:05;;;;;;;4.5;2.9;;;;;;;32.13;33.24219;936.3448;;;;
2023/07/23 09:44:33;;;;;;;3;2.6;;;;;;;32.29;35.96387;936.2896;;;;
2023/07/23 09:46:58;;;;;;;3.7;2.8;;;;;;;32;35.46191;936.3115;;;;
2023/07/23 09:49:23;;;;;;;3.3;2.5;;;;;;;31.08;38.81055;936.3019;;;;
2023/07/23 10:10:15;;;;;;;3.1;2.4;;;;;;;31.13;38.5752;936.3347;;;;
2023/07/23 10:12:46;;;;;;;3.3;2.5;;;;;;;31.33;37.7793;936.2648;;;;
2023/07/23 10:15:16;;;;;;;3.8;2.7;;;;;;;31.23;39.6123;936.2413;;;;
2023/07/23 10:17:46;;;;;;;5.2;2.8;;;;;;;31.04;40.40918;936.2127;;;;
2023/07/23 10:20:11;;;;;;;3.5;2.9;;;;;;;30.88;40.04785;936.2303;;;;
2023/07/23 10:22:42;;;;;;;3.6;2.4;;;;;;;31.09;37.81836;936.2534;;;;
2023/07/23 10:25:14;;;;;;;3.5;2.8;;;;;;;31.06;37.18164;936.1814;;;;
2023/07/23 10:27:44;;;;;;;3.8;2.7;;;;;;;31.36;37.75684;936.1866;;;;
2023/07/23 10:30:09;;;;;;;4.6;3;;;;;;;31.68;35.61621;936.1438;;;;
2023/07/23 10:32:34;;;;;;;4;3.1;;;;;;;31.98;36.4541;936.1994;;;;
2023/07/23 10:38:20;;;;;;;3.4;2.6;;;;;;;31.46;38.06543;936.192;;;;
2023/07/23 10:40:47;;;;;;;4.9;2.9;;;;;;;30.98;37.98926;936.0679;;;;
2023/07/23 10:43:14;;;;;;;4.8;2.9;;;;;;;31.26;38.4541;936.0517;;;;
2023/07/23 10:45:45;;;;;;;3.1;2.8;;;;;;;31.71;36.26465;936.0536;;;;
2023/07/23 10:48:14;;;;;;;4.2;3.1;;;;;;;31.32;37.95703;936.052;;;;
2023/07/23 10:50:39;;;;;;;4.3;2.9;;;;;;;30.67;37.80664;936.0133;;;;
2023/07/23 10:53:04;;;;;;;4.1;2.6;;;;;;;30.56;42.18164;935.937;;;;
2023/07/23 10:55:34;;;;;;;4.5;3.3;;;;;;;31.01;38.08691;935.9222;;;;
2023/07/23 10:57:59;;;;;;;3.9;2.7;;;;;;;31.78;35.06055;935.8837;;;;
2023/07/23 11:00:24;;;;;;;3.8;2.8;;;;;;;31.97;35.38672;935.8474;;;;
2023/07/23 11:06:17;;;;;;;4;3.1;;;;;;;31.71;35.55859;935.7941;;;;
2023/07/23 11:08:46;;;;;;;4.6;3.1;;;;;;;31.55;36.51563;935.7821;;;;
2023/07/23 11:11:11;;;;;;;4;3;;;;;;;31.11;39.19531;935.7768;;;;
2023/07/23 11:13:36;;;;;;;4.5;3.2;;;;;;;31.33;36.36621;935.7725;;;;
2023/07/23 11:16:46;;;;;;;4;3.2;;;;;;;31.68;33.49609;935.7028;;;;
2023/07/23 11:18:58;;;;;;;3.7;2.9;;;;;;;31.07;38.19922;935.7815;;;;
2023/07/23 11:21:28;;;;;;;4.4;3.3;;;;;;;31.62;34.9043;935.7161;;;;
2023/07/23 11:23:52;;;;;;;4.2;2.7;;;;;;;31.36;37.13477;935.6348;;;;
2023/07/23 11:26:20;;;;;;;3.9;2.6;;;;;;;31.06;38.88086;935.615;;;;
2023/07/23 11:28:45;;;;;;;3.6;2.9;;;;;;;30.45;43.06836;935.6514;;;;
2023/07/23 11:31:16;;;;;;;3.6;2.7;;;;;;;30.1;43.79785;935.6175;;;;
2023/07/23 11:33:40;;;;;;;5.1;2.9;;;;;;;30.14;42.25098;935.6382;;;;
2023/07/23 11:36:09;;;;;;;4;2.9;;;;;;;29.49;41.86816;935.5684;;;;
2023/07/23 11:38:34;;;;;;;5.6;3.4;;;;;;;29.52;40.09473;935.5881;;;;
2023/07/23 11:41:06;;;;;;;3.9;3.2;;;;;;;29.35;43.52344;935.5789;;;;
2023/07/23 11:43:30;;;;;;;4.6;3.2;;;;;;;29.51;44.63574;935.5142;;;;
2023/07/23 11:46:03;;;;;;;3.6;3;;;;;;;29.67;44.45996;935.503;;;;
2023/07/23 11:48:28;;;;;;;4.7;3.1;;;;;;;30.35;40.33594;935.4369;;;;
2023/07/23 11:50:59;;;;;;;5.4;3.4;;;;;;;30.2;39.86914;935.3582;;;;
2023/07/23 11:53:23;;;;;;;4.2;3;;;;;;;29.68;43.09082;935.3781;;;;
2023/07/23 11:55:48;;;;;;;4.5;3.4;;;;;;;29.61;41.17578;935.3752;;;;
2023/07/23 11:58:16;;;;;;;5.4;3.4;;;;;;;29.93;42.8623;935.2858;;;;
2023/07/23 12:00:46;;;;;;;5.2;3.1;;;;;;;29.99;43.10742;935.3797;;;;
2023/07/23 12:03:09;;;;;;;4.2;3.2;;;;;;;30.44;41.72852;935.3597;;;;
2023/07/23 12:05:41;;;;;;;3.7;3.2;;;;;;;31.2;36.06836;935.2917;;;;
2023/07/23 12:08:06;;;;;;;5;3.1;;;;;;;30.99;37.88086;935.3158;;;;
2023/07/23 12:10:34;;;;;;;5.7;3.3;;;;;;;29.93;39.78516;935.2651;;;;
2023/07/23 12:12:59;;;;;;;5.5;3.5;;;;;;;30.16;38.27832;935.2819;;;;
2023/07/23 12:15:27;;;;;;;4.6;3.2;;;;;;;30.89;41.11328;935.2236;;;;
2023/07/23 12:17:53;;;;;;;5.3;3.5;;;;;;;31.32;39.45313;935.1859;;;;
2023/07/23 12:20:25;;;;;;;5.3;3.3;;;;;;;31.02;37.70508;935.1567;;;;
2023/07/23 12:22:50;;;;;;;5.3;3.6;;;;;;;29.98;39.93262;935.2023;;;;
2023/07/23 12:25:19;;;;;;;4.9;3.4;;;;;;;30.18;40.0459;935.1733;;;;
2023/07/23 12:27:51;;;;;;;4.9;3.3;;;;;;;29.99;41.56836;935.1586;;;;
2023/07/23 12:30:17;;;;;;;4.3;3.4;;;;;;;29.58;40.46973;935.1227;;;;
2023/07/23 12:32:46;;;;;;;4.9;3.5;;;;;;;29.6;41.1875;935.0345;;;;
2023/07/23 12:35:19;;;;;;;5.5;3.6;;;;;;;29.69;42.10059;935.0709;;;;
2023/07/23 12:37:48;;;;;;;5.1;3.6;;;;;;;29.73;40.37598;935.0942;;;;
2023/07/23 12:40:18;;;;;;;4.5;3.4;;;;;;;30.24;38.75;935.0572;;;;
2023/07/23 12:42:43;;;;;;;5.4;3.7;;;;;;;30.53;38.90625;935.0406;;;;
2023/07/23 12:45:18;;;;;;;4.6;3.4;;;;;;;30.12;38.81152;935.022;;;;
2023/07/23 12:47:47;;;;;;;5.4;3.5;;;;;;;29.56;40.00293;935.1158;;;;
2023/07/23 12:50:21;;;;;;;4.6;3.3;;;;;;;29.44;40.48047;935.1838;;;;
2023/07/23 12:52:52;;;;;;;5.6;3.5;;;;;;;29.43;43.29199;935.1053;;;;
2023/07/23 12:55:19;;;;;;;3.9;3.1;;;;;;;29.18;43.18457;935.1572;;;;
2023/07/23 12:57:47;;;;;;;4.5;3.3;;;;;;;28.85;42.05859;935.1556;;;;
2023/07/23 13:00:27;;;;;;;6;4.1;;;;;;;29.19;40.66211;935.0889;;;;
2023/07/23 13:03:05;;;;;;;5;3.6;;;;;;;29.71;41.24512;935.1367;;;;
2023/07/23 13:05:36;;;;;;;4.8;3.3;;;;;;;29.64;42.25195;935.055;;;;
2023/07/23 13:08:02;;;;;;;5.2;3.7;;;;;;;29.93;42.31348;934.9771;;;;
2023/07/23 13:10:33;;;;;;;4.5;3.5;;;;;;;30.05;39.55664;934.9716;;;;
2023/07/23 13:17:57;;;;;;;5.8;3.7;;;;;;;29.34;44.7959;934.9292;;;;
2023/07/23 13:20:21;;;;;;;5.1;3.5;;;;;;;29.72;40.26758;934.955;;;;
2023/07/23 13:22:46;;;;;;;5.7;3.9;;;;;;;30.22;41.25488;934.9253;;;;
2023/07/23 13:25:18;;;;;;;6.4;3.8;;;;;;;29.96;40.38477;934.9661;;;;
2023/07/23 13:27:49;;;;;;;5.7;3.6;;;;;;;30.42;40.19922;934.9677;;;;
2023/07/23 13:30:18;;;;;;;6;4;;;;;;;30.85;37.70313;934.9431;;;;
2023/07/23 13:32:43;;;;;;;5.1;3.5;;;;;;;29.88;39.80469;934.9807;;;;
2023/07/23 13:35:08;;;;;;;6.6;3.5;;;;;;;29.8;41.07324;934.9776;;;;
2023/07/23 13:37:40;;;;;;;5.6;3.4;;;;;;;30.2;38.18555;934.9044;;;;
2023/07/23 13:40:15;;;;;;;5.4;3.8;;;;;;;30.86;38.40918;934.9621;;;;
2023/07/23 13:42:40;;;;;;;5.6;3.5;;;;;;;30.76;38.38867;934.9526;;;;
2023/07/23 13:45:15;;;;;;;8;3.6;;;;;;;30.39;41.33008;934.9725;;;;
2023/07/23 13:47:41;;;;;;;6.1;4.2;;;;;;;30.01;39.99512;934.9325;;;;
2023/07/23 13:50:11;;;;;;;4.8;3.3;;;;;;;29.57;41.44629;935.017;;;;
2023/07/23 13:52:33;;;;;;;6.8;4;;;;;;;28.99;44.04785;935.0975;;;;
2023/07/23 13:55:02;;;;;;;5.8;3.7;;;;;;;29.08;42.05664;935.0644;;;;
2023/07/23 13:57:28;;;;;;;5.4;3.8;;;;;;;28.6;45.13867;935.1351;;;;
2023/07/23 13:59:52;;;;;;;5.3;3.7;;;;;;;28.35;42.76074;935.1058;;;;
2023/07/23 14:02:19;;;;;;;5.9;3.8;;;;;;;28.65;40.82617;935.1202;;;;
2023/07/23 14:08:04;;;;;;;5.7;3.6;;;;;;;28.69;41.31738;935.168;;;;
2023/07/23 14:10:35;;;;;;;7.1;3.8;;;;;;;28.81;41.11426;935.2813;;;;
2023/07/23 14:12:58;;;;;;;6.6;3.9;;;;;;;28.34;41.54688;935.1861;;;;
2023/07/23 14:15:32;;;;;;;6.2;4;;;;;;;28.25;42.41895;935.2545;;;;
2023/07/23 14:18:00;;;;;;;5.1;3.8;;;;;;;28.15;44.55957;935.2735;;;;
2023/07/23 14:20:26;;;;;;;5.2;3.6;;;;;;;28.28;42.21973;935.2715;;;;
2023/07/23 14:22:51;;;;;;;5.8;4;;;;;;;28.25;42.12012;935.2326;;;;
2023/07/23 14:25:16;;;;;;;6.1;4.1;;;;;;;28.3;41.9248;935.2791;;;;
2023/07/23 14:27:47;;;;;;;4.7;3.5;;;;;;;28.13;41.88379;935.2784;;;;
2023/07/23 14:30:18;;;;;;;5.3;3.7;;;;;;;28.13;40.94531;935.2735;;;;
2023/07/23 14:32:49;;;;;;;5.7;3.8;;;;;;;28.27;41.0293;935.2837;;;;
2023/07/23 14:35:20;;;;;;;7.2;3.8;;;;;;;28.3;41.9707;935.2427;;;;
2023/07/23 14:37:51;;;;;;;6.2;3.5;;;;;;;28.53;42.1709;935.3272;;;;
2023/07/23 14:40:16;;;;;;;5.4;3.7;;;;;;;28.77;42.51563;935.3269;;;;
2023/07/23 14:42:48;;;;;;;7.9;4;;;;;;;28.83;44.04395;935.2963;;;;
2023/07/23 14:45:17;;;;;;;6.1;4.1;;;;;;;28.98;42.68945;935.231;;;;
2023/07/23 14:47:42;;;;;;;6.4;3.8;;;;;;;29.17;41.55273;935.2963;;;;
2023/07/23 14:50:16;;;;;;;6.3;4.1;;;;;;;29.32;43.3418;935.2355;;;;
2023/07/23 14:52:41;;;;;;;6.9;4;;;;;;;29.51;43.57422;935.2759;;;;
2023/07/23 14:55:15;;;;;;;5.3;3.7;;;;;;;29.52;42.52539;935.2283;;;;
2023/07/23 14:57:45;;;;;;;6.2;3.7;;;;;;;29.52;42.53809;935.2584;;;;
2023/07/23 15:00:11;;;;;;;7;4.2;;;;;;;29.52;40.8584;935.2109;;;;
2023/07/23 15:02:41;;;;;;;6.4;3.8;;;;;;;29.01;43.99023;935.2551;;;;
2023/07/23 15:05:16;;;;;;;7.6;4;;;;;;;28.92;43.04102;935.2296;;;;
2023/07/23 15:07:41;;;;;;;6.4;3.8;;;;;;;28.39;45.92676;935.1641;;;;
2023/07/23 15:10:18;;;;;;;5.3;3.8;;;;;;;28.08;46.06152;935.1523;;;;
2023/07/23 15:12:48;;;;;;;5.5;3.9;;;;;;;28.08;45.77637;935.1948;;;;
2023/07/23 15:15:13;;;;;;;5.8;3.9;;;;;;;27.57;49.97363;935.1875;;;;
2023/07/23 15:17:38;;;;;;;6.1;3.6;;;;;;;27.54;46.51758;935.1616;;;;
2023/07/23 15:20:03;;;;;;;6.3;3.8;;;;;;;27.65;46.30273;935.1802;;;;
2023/07/23 15:22:29;;;;;;;5.4;3.7;;;;;;;27.84;44.74219;935.1415;;;;
2023/07/23 15:28:02;;;;;;;5.3;3.9;;;;;;;28.11;44.29395;935.1821;;;;
2023/07/23 15:30:28;;;;;;;5.8;3.9;;;;;;;28.17;43.91992;935.188;;;;